createdAt,value
2023-03-04T00:00:26.170Z,24.47
2023-03-04T00:02:53.022Z,24.03
2023-03-04T00:05:20.081Z,28.30
2023-03-04T00:07:46.899Z,30.20
2023-03-04T00:10:13.817Z,26.37
2023-03-04T00:12:40.618Z,29.33
2023-03-04T00:15:08.063Z,26.97
2023-03-04T00:17:34.853Z,25.40
2023-03-04T00:20:01.634Z,26.20
2023-03-04T00:22:28.422Z,25.30
2023-03-04T00:24:55.164Z,25.80
2023-03-04T00:27:22.647Z,31.30
2023-03-04T00:29:49.767Z,30.63
2023-03-04T00:32:18.259Z,28.27
2023-03-04T00:34:45.079Z,26.73
2023-03-04T00:37:11.837Z,26.70
2023-03-04T00:39:38.688Z,25.80
2023-03-04T00:42:05.489Z,26.37
2023-03-04T00:44:32.741Z,21.97
2023-03-04T00:47:00.044Z,26.03
2023-03-04T00:49:26.973Z,26.27
2023-03-04T00:51:53.820Z,24.87
2023-03-04T00:54:20.705Z,26.93
2023-03-04T00:56:47.557Z,23.03
2023-03-04T00:59:14.286Z,24.77
2023-03-04T01:01:41.158Z,26.10
2023-03-04T01:04:07.975Z,24.00
2023-03-04T01:06:34.807Z,24.57
2023-03-04T01:09:02.050Z,22.27
2023-03-04T01:11:30.142Z,29.23
2023-03-04T01:13:56.892Z,27.27
2023-03-04T01:16:23.768Z,22.97
2023-03-04T01:18:50.555Z,28.03
2023-03-04T01:21:17.456Z,26.13
2023-03-04T01:23:44.284Z,25.23
2023-03-04T01:26:11.085Z,26.70
2023-03-04T01:28:37.858Z,25.13
2023-03-04T01:31:06.830Z,22.23
2023-03-04T01:33:33.599Z,23.47
2023-03-04T01:36:00.543Z,27.13
2023-03-04T01:38:27.418Z,28.27
2023-03-04T01:40:54.511Z,23.93
2023-03-04T01:43:25.123Z,29.33
2023-03-04T01:45:53.052Z,27.40
2023-03-04T01:48:27.759Z,26.53
2023-03-04T01:50:54.861Z,23.70
2023-03-04T01:53:24.770Z,25.77
2023-03-04T01:56:05.672Z,27.30
2023-03-04T01:58:34.012Z,24.60
2023-03-04T02:01:00.820Z,25.77
2023-03-04T02:03:27.845Z,28.43
2023-03-04T02:05:56.101Z,30.83
2023-03-04T02:08:24.793Z,25.37
2023-03-04T02:10:52.304Z,27.47
2023-03-04T02:13:19.264Z,32.27
2023-03-04T02:15:46.966Z,25.90
2023-03-04T02:18:22.004Z,28.00
2023-03-04T02:20:56.932Z,27.73
2023-03-04T02:23:35.516Z,29.50
2023-03-04T02:26:15.284Z,26.93
2023-03-04T02:28:43.337Z,27.37
2023-03-04T02:31:36.374Z,27.77
2023-03-04T02:34:21.647Z,27.67
2023-03-04T02:36:49.889Z,26.70
2023-03-04T02:39:34.033Z,25.70
2023-03-04T02:42:01.996Z,29.33
2023-03-04T02:44:34.658Z,33.40
2023-03-04T02:47:02.773Z,30.27
2023-03-04T02:49:32.492Z,25.97
2023-03-04T02:52:08.427Z,27.33
2023-03-04T02:54:35.809Z,27.40
2023-03-04T02:57:05.972Z,24.13
2023-03-04T02:59:35.972Z,25.43
2023-03-04T03:02:04.473Z,26.30
2023-03-04T03:04:31.465Z,26.03
2023-03-04T03:06:58.262Z,29.00
2023-03-04T03:09:25.957Z,28.00
2023-03-04T03:11:52.712Z,28.90
2023-03-04T03:14:20.155Z,27.93
2023-03-04T03:16:46.930Z,27.80
2023-03-04T03:19:13.655Z,26.80
2023-03-04T03:21:40.716Z,26.57
2023-03-04T03:24:08.558Z,27.20
2023-03-04T03:26:35.327Z,28.63
2023-03-04T03:29:02.146Z,29.43
2023-03-04T03:31:29.100Z,26.30
2023-03-04T03:33:55.950Z,29.33
2023-03-04T03:36:22.849Z,23.97
2023-03-04T03:38:49.617Z,26.50
2023-03-04T03:41:16.325Z,24.13
2023-03-04T03:43:43.091Z,24.63
2023-03-04T03:46:09.853Z,25.73
2023-03-04T03:48:36.657Z,24.63
2023-03-04T03:51:03.526Z,25.73
2023-03-04T03:53:30.275Z,26.97
2023-03-04T03:55:57.079Z,22.70
2023-03-04T03:58:23.944Z,22.73
2023-03-04T04:00:50.676Z,24.57
2023-03-04T04:03:18.161Z,21.90
2023-03-04T04:05:44.972Z,21.97
2023-03-04T04:08:14.357Z,21.13
2023-03-04T04:10:41.719Z,22.77
2023-03-04T04:13:08.627Z,22.50
2023-03-04T04:15:36.705Z,21.23
2023-03-04T04:18:03.510Z,23.47
2023-03-04T04:20:30.328Z,22.00
2023-03-04T04:22:57.178Z,22.13
2023-03-04T04:25:23.943Z,21.83
2023-03-04T04:27:50.655Z,23.00
2023-03-04T04:30:17.667Z,25.70
2023-03-04T04:32:44.384Z,25.20
2023-03-04T04:35:11.431Z,25.67
2023-03-04T04:37:38.289Z,27.97
2023-03-04T04:40:05.811Z,25.80
2023-03-04T04:42:32.609Z,26.83
2023-03-04T04:44:59.419Z,25.60
2023-03-04T04:47:26.298Z,26.00
2023-03-04T04:49:53.048Z,24.03
2023-03-04T04:52:19.865Z,27.40
2023-03-04T04:54:46.625Z,22.33
2023-03-04T04:57:13.344Z,22.43
2023-03-04T04:59:40.075Z,24.33
2023-03-04T05:02:06.799Z,24.17
2023-03-04T05:04:33.559Z,26.60
2023-03-04T05:07:00.319Z,24.13
2023-03-04T05:09:27.102Z,22.97
2023-03-04T05:11:53.835Z,20.93
2023-03-04T05:14:20.686Z,25.53
2023-03-04T05:16:47.437Z,25.37
2023-03-04T05:19:14.162Z,20.50
2023-03-04T05:21:40.870Z,23.13
2023-03-04T05:24:07.794Z,21.33
2023-03-04T05:26:35.247Z,22.93
2023-03-04T05:29:02.163Z,24.37
2023-03-04T05:31:28.930Z,24.60
2023-03-04T05:33:55.655Z,27.20
2023-03-04T05:36:22.791Z,25.77
2023-03-04T05:38:49.565Z,21.43
2023-03-04T05:41:18.900Z,25.17
2023-03-04T05:43:45.797Z,24.97
2023-03-04T05:46:15.419Z,25.33
2023-03-04T05:48:42.771Z,24.47
2023-03-04T05:51:10.071Z,26.13
2023-03-04T05:53:37.270Z,24.40
2023-03-04T05:56:08.953Z,22.73
2023-03-04T05:58:35.702Z,26.40
2023-03-04T06:01:03.288Z,26.13
2023-03-04T06:03:30.100Z,23.13
2023-03-04T06:05:56.993Z,23.30
2023-03-04T06:08:23.790Z,23.50
2023-03-04T06:10:53.816Z,20.77
2023-03-04T06:13:21.239Z,18.07
2023-03-04T06:15:48.300Z,25.27
2023-03-04T06:18:15.142Z,20.07
2023-03-04T06:20:41.807Z,19.17
2023-03-04T06:23:08.589Z,24.10
2023-03-04T06:25:35.313Z,26.00
2023-03-04T06:28:02.318Z,22.37
2023-03-04T06:30:29.205Z,31.37
2023-03-04T06:32:55.962Z,34.07
2023-03-04T06:35:22.748Z,34.93
2023-03-04T06:37:49.570Z,44.03
2023-03-04T06:40:16.383Z,41.47
2023-03-04T06:42:43.664Z,45.23
2023-03-04T06:45:11.525Z,40.23
2023-03-04T06:47:38.935Z,46.27
2023-03-04T06:50:06.234Z,48.53
2023-03-04T06:52:33.046Z,42.30
2023-03-04T06:55:00.724Z,35.83
2023-03-04T06:57:27.490Z,40.20
2023-03-04T06:59:54.246Z,38.53
2023-03-04T07:02:21.150Z,42.03
2023-03-04T07:04:48.079Z,35.10
2023-03-04T07:07:14.824Z,26.27
2023-03-04T07:09:41.522Z,32.43
2023-03-04T07:12:08.405Z,34.80
2023-03-04T07:14:35.128Z,33.40
2023-03-04T07:17:01.865Z,31.93
2023-03-04T07:19:28.594Z,37.13
2023-03-04T07:21:55.401Z,30.87
2023-03-04T07:24:22.224Z,29.47
2023-03-04T07:26:48.931Z,29.40
2023-03-04T07:29:15.733Z,27.70
2023-03-04T07:31:42.552Z,34.23
2023-03-04T07:34:12.210Z,28.60
2023-03-04T07:36:38.996Z,31.17
2023-03-04T07:39:06.953Z,33.20
2023-03-04T07:41:36.403Z,31.33
2023-03-04T07:44:04.699Z,29.20
2023-03-04T07:46:31.602Z,35.60
2023-03-04T07:48:58.471Z,23.60
2023-03-04T07:51:26.989Z,27.83
2023-03-04T07:53:58.988Z,25.03
2023-03-04T07:56:30.011Z,24.73
2023-03-04T07:58:56.981Z,23.27
2023-03-04T08:01:26.748Z,23.53
2023-03-04T08:03:54.269Z,29.43
2023-03-04T08:06:22.373Z,23.27
2023-03-04T08:08:49.831Z,24.27
2023-03-04T08:11:20.273Z,19.57
2023-03-04T08:13:47.944Z,25.87
2023-03-04T08:16:16.968Z,25.07
2023-03-04T08:18:45.454Z,22.87
2023-03-04T08:21:13.301Z,22.77
2023-03-04T08:23:42.561Z,20.57
2023-03-04T08:26:12.027Z,19.40
2023-03-04T08:28:39.278Z,26.00
2023-03-04T08:31:06.711Z,20.40
2023-03-04T08:33:34.544Z,23.47
2023-03-04T08:36:01.411Z,22.03
2023-03-04T08:38:28.253Z,20.50
2023-03-04T08:40:57.261Z,25.00
2023-03-04T08:43:25.420Z,21.83
2023-03-04T08:45:53.983Z,26.63
2023-03-04T08:48:21.771Z,19.97
2023-03-04T08:50:49.728Z,21.00
2023-03-04T08:53:18.284Z,21.23
2023-03-04T08:55:45.493Z,25.20
2023-03-04T08:58:13.015Z,22.53
2023-03-04T09:00:43.164Z,22.67
2023-03-04T09:03:13.251Z,26.50
2023-03-04T09:05:40.796Z,23.20
2023-03-04T09:08:08.247Z,22.60
2023-03-04T09:10:35.123Z,20.13
2023-03-04T09:13:02.079Z,23.30
2023-03-04T09:15:29.065Z,23.97
2023-03-04T09:17:55.881Z,24.27
2023-03-04T09:20:23.285Z,23.83
2023-03-04T09:22:50.214Z,24.13
2023-03-04T09:25:17.079Z,22.57
2023-03-04T09:27:44.007Z,21.80
2023-03-04T09:30:11.913Z,27.37
2023-03-04T09:32:40.084Z,22.90
2023-03-04T09:35:07.626Z,22.17
2023-03-04T09:37:34.610Z,20.60
2023-03-04T09:40:01.714Z,21.83
2023-03-04T09:42:47.433Z,20.97
2023-03-04T09:45:20.438Z,23.00
2023-03-04T09:47:50.360Z,20.93
2023-03-04T09:50:18.443Z,25.17
2023-03-04T09:53:11.240Z,21.23
2023-03-04T09:55:40.601Z,20.97
2023-03-04T09:58:16.181Z,19.67
2023-03-04T10:00:45.992Z,21.77
2023-03-04T10:03:18.623Z,26.63
2023-03-04T10:05:58.005Z,27.47
2023-03-04T10:09:00.742Z,25.93
2023-03-04T10:11:39.577Z,22.57
2023-03-04T10:14:22.712Z,21.27
2023-03-04T10:16:54.045Z,21.53
2023-03-04T10:19:55.112Z,26.03
2023-03-04T10:22:36.275Z,19.93
2023-03-04T10:25:20.376Z,18.17
2023-03-04T10:28:03.442Z,23.27
2023-03-04T10:30:49.909Z,20.63
2023-03-04T10:33:22.027Z,20.33
2023-03-04T10:35:56.122Z,20.30
2023-03-04T10:38:24.031Z,18.93
2023-03-04T10:40:50.966Z,19.27
2023-03-04T10:43:21.908Z,16.60
2023-03-04T10:45:54.587Z,19.10
2023-03-04T10:48:27.898Z,18.93
2023-03-04T10:51:10.248Z,22.97
2023-03-04T10:53:42.811Z,19.40
2023-03-04T10:56:41.103Z,21.17
2023-03-04T10:59:53.391Z,19.00
2023-03-04T11:02:30.742Z,16.57
2023-03-04T11:04:57.604Z,18.40
2023-03-04T11:07:26.575Z,18.37
2023-03-04T11:09:54.657Z,18.73
2023-03-04T11:12:33.310Z,17.17
2023-03-04T11:15:00.413Z,19.73
2023-03-04T11:17:39.111Z,19.13
2023-03-04T11:20:24.625Z,18.97
2023-03-04T11:22:53.613Z,17.53
2023-03-04T11:25:40.798Z,18.57
2023-03-04T11:28:19.696Z,22.97
2023-03-04T11:30:56.776Z,16.47
2023-03-04T11:33:28.002Z,22.53
2023-03-04T11:36:08.894Z,15.93
2023-03-04T11:38:42.207Z,19.53
2023-03-04T11:41:19.251Z,18.37
2023-03-04T11:43:47.265Z,17.43
2023-03-04T11:46:41.955Z,16.80
2023-03-04T11:49:30.051Z,15.37
2023-03-04T11:52:19.673Z,18.73
2023-03-04T11:55:07.992Z,17.67
2023-03-04T11:58:00.646Z,17.83
2023-03-04T12:00:35.799Z,16.07
2023-03-04T12:03:32.224Z,17.97
2023-03-04T12:06:09.931Z,21.00
2023-03-04T12:08:44.215Z,17.60
2023-03-04T12:12:02.107Z,17.27
2023-03-04T12:14:31.860Z,17.17
2023-03-04T12:17:06.680Z,22.20
2023-03-04T12:19:53.923Z,16.77
2023-03-04T12:22:20.683Z,20.33
2023-03-04T12:25:03.788Z,16.57
2023-03-04T12:27:33.465Z,17.47
2023-03-04T12:30:21.437Z,19.73
2023-03-04T12:33:12.967Z,21.37
2023-03-04T12:35:52.718Z,17.93
2023-03-04T12:38:43.681Z,17.53
2023-03-04T12:41:30.652Z,18.33
2023-03-04T12:44:17.035Z,16.23
2023-03-04T12:46:46.924Z,19.20
2023-03-04T12:49:19.367Z,18.47
2023-03-04T12:52:01.516Z,19.13
2023-03-04T12:54:37.363Z,18.13
2023-03-04T12:57:14.529Z,16.97
2023-03-04T12:59:57.392Z,19.43
2023-03-04T13:02:54.646Z,18.80
2023-03-04T13:05:31.667Z,17.43
2023-03-04T13:08:15.567Z,18.63
2023-03-04T13:10:42.419Z,18.87
2023-03-04T13:13:32.279Z,17.33
2023-03-04T13:16:26.783Z,18.23
2023-03-04T13:18:53.708Z,16.57
2023-03-04T13:21:27.891Z,17.07
2023-03-04T13:23:55.672Z,20.60
2023-03-04T13:26:35.011Z,17.47
2023-03-04T13:29:31.072Z,16.40
2023-03-04T13:32:02.581Z,19.60
2023-03-04T13:34:49.588Z,22.60
2023-03-04T13:37:32.985Z,18.50
2023-03-04T13:40:23.368Z,21.30
2023-03-04T13:42:50.849Z,17.33
2023-03-04T13:45:38.951Z,17.43
2023-03-04T13:48:23.596Z,19.33
2023-03-04T13:50:51.324Z,24.83
2023-03-04T13:53:33.000Z,19.53
2023-03-04T13:56:06.944Z,21.67
2023-03-04T13:58:34.643Z,22.23
2023-03-04T14:01:01.639Z,21.67
2023-03-04T14:03:31.332Z,21.60
2023-03-04T14:06:10.410Z,21.40
2023-03-04T14:08:37.371Z,25.37
2023-03-04T14:11:04.249Z,22.87
2023-03-04T14:13:31.609Z,21.07
2023-03-04T14:16:00.259Z,21.73
2023-03-04T14:18:28.206Z,23.57
2023-03-04T14:20:59.051Z,22.27
2023-03-04T14:23:34.598Z,22.23
2023-03-04T14:26:06.591Z,22.97
2023-03-04T14:28:33.553Z,23.63
2023-03-04T14:31:00.941Z,24.97
2023-03-04T14:33:30.698Z,20.73
2023-03-04T14:36:02.656Z,25.17
2023-03-04T14:38:35.910Z,23.57
2023-03-04T14:41:05.663Z,20.57
2023-03-04T14:43:41.333Z,23.43
2023-03-04T14:46:13.309Z,21.27
2023-03-04T14:48:44.469Z,21.97
2023-03-04T14:51:42.069Z,26.27
2023-03-04T14:54:25.872Z,21.47
2023-03-04T14:56:52.710Z,26.27
2023-03-04T14:59:29.475Z,23.53
2023-03-04T15:02:20.190Z,22.43
2023-03-04T15:04:48.751Z,24.60
2023-03-04T15:07:36.770Z,22.73
2023-03-04T15:10:08.974Z,23.73
2023-03-04T15:12:38.188Z,20.77
2023-03-04T15:15:36.124Z,22.27
2023-03-04T15:18:23.897Z,21.40
2023-03-04T15:21:19.294Z,20.20
2023-03-04T15:23:46.739Z,23.43
2023-03-04T15:26:14.247Z,24.27
2023-03-04T15:28:42.083Z,22.53
2023-03-04T15:31:18.141Z,22.40
2023-03-04T15:33:45.212Z,25.83
2023-03-04T15:36:21.088Z,25.33
2023-03-04T15:38:50.870Z,25.80
2023-03-04T15:41:28.066Z,24.07
2023-03-04T15:43:55.626Z,24.27
2023-03-04T15:46:23.147Z,24.03
2023-03-04T15:48:50.240Z,21.30
2023-03-04T15:51:23.253Z,22.73
2023-03-04T15:53:52.158Z,22.90
2023-03-04T15:56:23.044Z,21.20
2023-03-04T15:59:16.713Z,22.33
2023-03-04T16:01:44.016Z,26.47
2023-03-04T16:04:15.847Z,22.40
2023-03-04T16:06:46.838Z,25.37
2023-03-04T16:09:17.044Z,23.33
2023-03-04T16:11:47.686Z,25.50
2023-03-04T16:14:16.168Z,23.30
2023-03-04T16:16:44.452Z,22.70
2023-03-04T16:19:11.897Z,26.83
2023-03-04T16:21:38.936Z,21.20
2023-03-04T16:24:06.226Z,23.00
2023-03-04T16:26:35.632Z,23.47
2023-03-04T16:29:03.362Z,22.90
2023-03-04T16:31:30.350Z,23.90
2023-03-04T16:33:57.261Z,34.67
2023-03-04T16:36:26.987Z,26.57
2023-03-04T16:38:59.123Z,25.07
2023-03-04T16:41:30.545Z,24.33
2023-03-04T16:44:00.528Z,22.97
2023-03-04T16:46:27.517Z,23.73
2023-03-04T16:48:54.671Z,30.20
2023-03-04T16:51:23.320Z,25.73
2023-03-04T16:54:00.282Z,24.30
2023-03-04T16:56:27.801Z,26.40
2023-03-04T16:58:54.603Z,28.77
2023-03-04T17:01:26.888Z,25.83
2023-03-04T17:03:54.999Z,28.37
2023-03-04T17:06:23.265Z,29.17
2023-03-04T17:08:50.411Z,25.83
2023-03-04T17:11:20.752Z,24.13
2023-03-04T17:13:48.086Z,25.00
2023-03-04T17:16:15.431Z,24.43
2023-03-04T17:18:44.230Z,24.67
2023-03-04T17:21:14.098Z,23.77
2023-03-04T17:23:41.078Z,29.03
2023-03-04T17:26:09.297Z,28.67
2023-03-04T17:28:36.848Z,23.37
2023-03-04T17:31:15.736Z,27.40
2023-03-04T17:33:43.939Z,25.30
2023-03-04T17:36:12.285Z,24.73
2023-03-04T17:38:39.389Z,26.83
2023-03-04T17:41:08.383Z,26.90
2023-03-04T17:43:35.438Z,28.10
2023-03-04T17:46:10.674Z,25.10
2023-03-04T17:48:37.531Z,29.30
2023-03-04T17:51:04.700Z,26.30
2023-03-04T17:53:31.778Z,30.63
2023-03-04T17:56:01.184Z,28.17
2023-03-04T17:58:30.250Z,30.10
2023-03-04T18:01:04.898Z,32.13
2023-03-04T18:03:31.820Z,34.67
2023-03-04T18:05:58.772Z,30.03
2023-03-04T18:08:25.680Z,33.73
2023-03-04T18:10:53.082Z,33.07
2023-03-04T18:13:20.700Z,27.07
2023-03-04T18:15:47.638Z,28.90
2023-03-04T18:18:14.765Z,36.67
2023-03-04T18:20:41.647Z,40.73
2023-03-04T18:23:08.740Z,33.40
2023-03-04T18:25:35.896Z,40.10
2023-03-04T18:28:02.820Z,46.60
2023-03-04T18:30:29.843Z,47.60
2023-03-04T18:32:59.710Z,30.17
2023-03-04T18:35:26.959Z,27.67
2023-03-04T18:37:54.199Z,28.00
2023-03-04T18:40:21.367Z,27.47
2023-03-04T18:42:48.277Z,25.63
2023-03-04T18:45:17.306Z,29.53
2023-03-04T18:47:51.494Z,28.27
2023-03-04T18:50:20.564Z,26.70
2023-03-04T18:52:47.928Z,32.40
2023-03-04T18:55:15.176Z,32.73
2023-03-04T18:57:46.991Z,27.63
2023-03-04T19:00:22.539Z,30.43
2023-03-04T19:02:54.317Z,26.60
2023-03-04T19:05:27.652Z,33.70
2023-03-04T19:07:54.991Z,26.53
2023-03-04T19:10:22.031Z,26.37
2023-03-04T19:12:48.865Z,29.57
2023-03-04T19:15:16.309Z,30.67
2023-03-04T19:17:45.367Z,29.13
2023-03-04T19:20:14.107Z,27.77
2023-03-04T19:22:41.191Z,24.40
2023-03-04T19:25:09.131Z,29.77
2023-03-04T19:27:36.033Z,32.93
2023-03-04T19:30:03.234Z,29.87
2023-03-04T19:32:30.464Z,33.07
2023-03-04T19:34:57.344Z,33.83
2023-03-04T19:37:24.269Z,32.73
2023-03-04T19:39:52.461Z,30.17
2023-03-04T19:42:19.325Z,33.93
2023-03-04T19:44:46.227Z,31.63
2023-03-04T19:47:13.206Z,29.17
2023-03-04T19:49:40.037Z,31.97
2023-03-04T19:52:06.917Z,34.40
2023-03-04T19:54:33.788Z,30.33
2023-03-04T19:57:00.659Z,31.17
2023-03-04T19:59:27.592Z,32.60
2023-03-04T20:01:54.572Z,29.40
2023-03-04T20:04:22.089Z,31.97
2023-03-04T20:06:51.095Z,32.20
2023-03-04T20:09:19.139Z,34.20
2023-03-04T20:12:02.769Z,31.07
2023-03-04T20:14:32.500Z,32.30
2023-03-04T20:17:02.624Z,35.47
2023-03-04T20:19:30.920Z,32.57
2023-03-04T20:21:58.011Z,29.40
2023-03-04T20:24:25.873Z,34.30
2023-03-04T20:26:52.944Z,36.27
2023-03-04T20:29:19.922Z,32.40
2023-03-04T20:31:46.887Z,32.53
2023-03-04T20:34:14.173Z,34.00
2023-03-04T20:36:41.339Z,29.37
2023-03-04T20:39:27.535Z,30.37
2023-03-04T20:41:58.940Z,34.43
2023-03-04T20:44:26.046Z,28.40
2023-03-04T20:46:52.967Z,31.43
2023-03-04T20:49:24.156Z,30.80
2023-03-04T20:51:52.530Z,30.20
2023-03-04T20:54:20.197Z,32.03
2023-03-04T20:56:47.153Z,32.63
2023-03-04T20:59:14.499Z,30.57
2023-03-04T21:01:43.517Z,30.23
2023-03-04T21:04:11.738Z,31.53
2023-03-04T21:06:39.616Z,30.40
2023-03-04T21:09:14.313Z,34.20
2023-03-04T21:11:41.477Z,31.23
2023-03-04T21:14:23.186Z,35.37
2023-03-04T21:16:55.740Z,29.70
2023-03-04T21:19:28.241Z,32.13
2023-03-04T21:21:57.189Z,33.83
2023-03-04T21:24:26.732Z,29.07
2023-03-04T21:26:53.714Z,31.20
2023-03-04T21:29:23.335Z,33.63
2023-03-04T21:31:53.505Z,33.77
2023-03-04T21:34:29.223Z,37.57
2023-03-04T21:36:56.317Z,31.87
2023-03-04T21:39:24.868Z,31.97
2023-03-04T21:41:52.829Z,30.93
2023-03-04T21:44:27.743Z,35.43
2023-03-04T21:46:59.231Z,35.57
2023-03-04T21:49:27.302Z,35.00
2023-03-04T21:51:54.290Z,32.60
2023-03-04T21:54:21.519Z,30.90
2023-03-04T21:56:49.499Z,32.37
2023-03-04T21:59:20.076Z,39.43
2023-03-04T22:01:47.144Z,31.83
2023-03-04T22:04:14.225Z,34.20
2023-03-04T22:06:41.571Z,36.53
2023-03-04T22:09:08.515Z,39.50
2023-03-04T22:11:35.397Z,33.73
2023-03-04T22:14:03.244Z,40.27
2023-03-04T22:16:31.001Z,35.07
2023-03-04T22:18:59.504Z,33.27
2023-03-04T22:21:26.431Z,36.63
2023-03-04T22:23:54.042Z,38.23
2023-03-04T22:26:30.026Z,33.10
2023-03-04T22:28:57.174Z,38.40
2023-03-04T22:31:32.881Z,31.43
2023-03-04T22:34:05.476Z,32.70
2023-03-04T22:36:34.838Z,33.50
2023-03-04T22:39:03.692Z,33.63
2023-03-04T22:41:30.558Z,32.53
2023-03-04T22:43:57.451Z,31.30
2023-03-04T22:46:28.027Z,34.50
2023-03-04T22:48:57.752Z,31.87
2023-03-04T22:51:24.884Z,37.27
2023-03-04T22:53:52.277Z,35.90
2023-03-04T22:56:20.041Z,36.37
2023-03-04T22:58:47.912Z,38.53
2023-03-04T23:01:16.796Z,34.90
2023-03-04T23:03:47.196Z,31.30
2023-03-04T23:06:16.632Z,35.13
2023-03-04T23:08:45.289Z,32.80
2023-03-04T23:11:32.885Z,38.87
2023-03-04T23:14:02.285Z,34.60
2023-03-04T23:16:29.403Z,33.43
2023-03-04T23:18:58.895Z,36.80
2023-03-04T23:21:28.268Z,34.03
2023-03-04T23:23:55.299Z,39.40
2023-03-04T23:26:28.133Z,39.93
2023-03-04T23:28:57.097Z,39.93
2023-03-04T23:31:25.667Z,39.70
2023-03-04T23:33:57.238Z,36.70
2023-03-04T23:36:33.924Z,38.67
2023-03-04T23:39:01.184Z,37.93
2023-03-04T23:41:30.745Z,38.13
2023-03-04T23:43:59.402Z,41.57
2023-03-04T23:46:27.014Z,38.50
2023-03-04T23:48:54.800Z,35.70
2023-03-04T23:51:24.748Z,40.70
2023-03-04T23:53:52.104Z,30.37
2023-03-04T23:56:24.920Z,43.67
2023-03-04T23:58:52.059Z,43.23
